sensor_id;sensor_type;location;lat;lon;timestamp;temperature;humidity
48998;DHT22;34807;51.456;7.244;2023-03-31T00:01:03;10.90;99.90
48998;DHT22;34807;51.456;7.244;2023-03-31T00:03:28;10.80;99.90
48998;DHT22;34807;51.456;7.244;2023-03-31T00:05:55;10.80;99.90
48998;DHT22;34807;51.456;7.244;2023-03-31T00:08:22;10.80;99.90
48998;DHT22;34807;51.456;7.244;2023-03-31T00:10:48;10.80;99.90
48998;DHT22;34807;51.456;7.244;2023-03-31T00:13:13;10.80;99.90
48998;DHT22;34807;51.456;7.244;2023-03-31T00:15:39;10.80;99.90
48998;DHT22;34807;51.456;7.244;2023-03-31T00:18:04;10.80;99.90
48998;DHT22;34807;51.456;7.244;2023-03-31T00:20:30;10.70;99.90
48998;DHT22;34807;51.456;7.244;2023-03-31T00:22:58;10.70;99.90
48998;DHT22;34807;51.456;7.244;2023-03-31T00:25:25;10.70;99.90
48998;DHT22;34807;51.456;7.244;2023-03-31T00:27:51;10.70;99.90
48998;DHT22;34807;51.456;7.244;2023-03-31T00:30:17;10.70;99.90
48998;DHT22;34807;51.456;7.244;2023-03-31T00:32:42;10.70;99.90
48998;DHT22;34807;51.456;7.244;2023-03-31T00:35:08;10.70;99.90
48998;DHT22;34807;51.456;7.244;2023-03-31T00:37:33;10.70;99.90
48998;DHT22;34807;51.456;7.244;2023-03-31T00:39:59;10.60;99.90
48998;DHT22;34807;51.456;7.244;2023-03-31T00:42:24;10.60;99.90
48998;DHT22;34807;51.456;7.244;2023-03-31T00:47:34;10.60;99.90
48998;DHT22;34807;51.456;7.244;2023-03-31T00:49:59;10.60;99.90
48998;DHT22;34807;51.456;7.244;2023-03-31T00:52:26;10.60;99.90
48998;DHT22;34807;51.456;7.244;2023-03-31T00:54:55;10.60;99.90
48998;DHT22;34807;51.456;7.244;2023-03-31T00:57:25;10.60;99.90
48998;DHT22;34807;51.456;7.244;2023-03-31T00:59:54;10.60;99.90
48998;DHT22;34807;51.456;7.244;2023-03-31T01:02:22;10.60;99.90
48998;DHT22;34807;51.456;7.244;2023-03-31T01:04:58;10.60;99.90
48998;DHT22;34807;51.456;7.244;2023-03-31T01:07:36;10.60;99.90
48998;DHT22;34807;51.456;7.244;2023-03-31T01:10:04;10.60;99.90
48998;DHT22;34807;51.456;7.244;2023-03-31T01:12:30;10.60;99.80
48998;DHT22;34807;51.456;7.244;2023-03-31T01:14:57;10.60;99.80
48998;DHT22;34807;51.456;7.244;2023-03-31T01:17:22;10.60;99.90
48998;DHT22;34807;51.456;7.244;2023-03-31T01:42:47;10.50;99.90
48998;DHT22;34807;51.456;7.244;2023-03-31T01:47:51;10.50;99.90
48998;DHT22;34807;51.456;7.244;2023-03-31T01:56:34;10.50;99.90
48998;DHT22;34807;51.456;7.244;2023-03-31T01:58:35;10.50;99.90
48998;DHT22;34807;51.456;7.244;2023-03-31T02:04:06;10.50;99.90
48998;DHT22;34807;51.456;7.244;2023-03-31T02:06:34;10.50;99.90
48998;DHT22;34807;51.456;7.244;2023-03-31T02:09:03;10.50;99.90
48998;DHT22;34807;51.456;7.244;2023-03-31T02:11:30;10.50;99.90
48998;DHT22;34807;51.456;7.244;2023-03-31T02:13:57;10.50;99.90
48998;DHT22;34807;51.456;7.244;2023-03-31T02:16:26;10.50;99.90
48998;DHT22;34807;51.456;7.244;2023-03-31T02:18:53;10.50;99.90
48998;DHT22;34807;51.456;7.244;2023-03-31T02:21:30;10.40;99.90
48998;DHT22;34807;51.456;7.244;2023-03-31T02:23:56;10.50;99.90
48998;DHT22;34807;51.456;7.244;2023-03-31T02:26:23;10.40;99.90
48998;DHT22;34807;51.456;7.244;2023-03-31T02:28:50;10.50;99.90
48998;DHT22;34807;51.456;7.244;2023-03-31T02:33:59;10.40;99.90
48998;DHT22;34807;51.456;7.244;2023-03-31T02:36:25;10.40;99.90
48998;DHT22;34807;51.456;7.244;2023-03-31T02:38:55;10.40;99.90
48998;DHT22;34807;51.456;7.244;2023-03-31T02:41:21;10.40;99.90
48998;DHT22;34807;51.456;7.244;2023-03-31T02:43:47;10.40;99.90
48998;DHT22;34807;51.456;7.244;2023-03-31T02:46:13;10.40;99.90
48998;DHT22;34807;51.456;7.244;2023-03-31T02:48:39;10.40;99.90
48998;DHT22;34807;51.456;7.244;2023-03-31T03:01:30;10.40;99.90
48998;DHT22;34807;51.456;7.244;2023-03-31T03:14:51;10.40;99.90
48998;DHT22;34807;51.456;7.244;2023-03-31T03:17:33;10.40;99.90
48998;DHT22;34807;51.456;7.244;2023-03-31T03:20:01;10.40;99.90
48998;DHT22;34807;51.456;7.244;2023-03-31T03:22:26;10.40;99.90
48998;DHT22;34807;51.456;7.244;2023-03-31T03:24:52;10.40;99.90
48998;DHT22;34807;51.456;7.244;2023-03-31T03:27:18;10.30;99.90
48998;DHT22;34807;51.456;7.244;2023-03-31T03:29:44;10.30;99.90
48998;DHT22;34807;51.456;7.244;2023-03-31T03:32:09;10.30;99.90
48998;DHT22;34807;51.456;7.244;2023-03-31T03:34:35;10.30;99.90
48998;DHT22;34807;51.456;7.244;2023-03-31T03:37:01;10.30;99.90
48998;DHT22;34807;51.456;7.244;2023-03-31T03:39:26;10.30;99.90
48998;DHT22;34807;51.456;7.244;2023-03-31T03:41:52;10.30;99.90
48998;DHT22;34807;51.456;7.244;2023-03-31T03:44:17;10.30;99.90
48998;DHT22;34807;51.456;7.244;2023-03-31T03:46:43;10.30;99.90
48998;DHT22;34807;51.456;7.244;2023-03-31T03:49:08;10.30;99.90
48998;DHT22;34807;51.456;7.244;2023-03-31T03:51:34;10.30;99.90
48998;DHT22;34807;51.456;7.244;2023-03-31T03:54:00;10.30;99.90
48998;DHT22;34807;51.456;7.244;2023-03-31T03:56:25;10.30;99.90
48998;DHT22;34807;51.456;7.244;2023-03-31T03:58:51;10.30;99.90
48998;DHT22;34807;51.456;7.244;2023-03-31T04:01:17;10.30;99.90
48998;DHT22;34807;51.456;7.244;2023-03-31T04:03:43;10.30;99.90
48998;DHT22;34807;51.456;7.244;2023-03-31T04:06:08;10.20;99.90
48998;DHT22;34807;51.456;7.244;2023-03-31T04:08:34;10.30;99.90
48998;DHT22;34807;51.456;7.244;2023-03-31T04:10:59;10.20;99.90
48998;DHT22;34807;51.456;7.244;2023-03-31T04:13:25;10.20;99.90
48998;DHT22;34807;51.456;7.244;2023-03-31T04:15:51;10.30;99.90
48998;DHT22;34807;51.456;7.244;2023-03-31T04:18:16;10.20;99.90
48998;DHT22;34807;51.456;7.244;2023-03-31T04:20:51;10.20;99.90
48998;DHT22;34807;51.456;7.244;2023-03-31T04:23:32;10.20;99.90
48998;DHT22;34807;51.456;7.244;2023-03-31T04:25:57;10.20;99.90
48998;DHT22;34807;51.456;7.244;2023-03-31T04:28:23;10.20;99.90
48998;DHT22;34807;51.456;7.244;2023-03-31T04:30:53;10.20;99.90
48998;DHT22;34807;51.456;7.244;2023-03-31T04:33:19;10.20;99.90
48998;DHT22;34807;51.456;7.244;2023-03-31T04:35:45;10.20;99.90
48998;DHT22;34807;51.456;7.244;2023-03-31T04:38:17;10.20;99.90
48998;DHT22;34807;51.456;7.244;2023-03-31T04:40:47;10.20;99.90
48998;DHT22;34807;51.456;7.244;2023-03-31T04:43:13;10.20;99.90
48998;DHT22;34807;51.456;7.244;2023-03-31T04:45:38;10.20;99.90
48998;DHT22;34807;51.456;7.244;2023-03-31T04:48:04;10.20;99.90
48998;DHT22;34807;51.456;7.244;2023-03-31T04:50:30;10.20;99.90
48998;DHT22;34807;51.456;7.244;2023-03-31T04:52:57;10.20;99.90
48998;DHT22;34807;51.456;7.244;2023-03-31T04:55:22;10.20;99.90
48998;DHT22;34807;51.456;7.244;2023-03-31T04:57:48;10.20;99.90
48998;DHT22;34807;51.456;7.244;2023-03-31T05:00:14;10.20;99.90
48998;DHT22;34807;51.456;7.244;2023-03-31T05:02:39;10.10;99.90
48998;DHT22;34807;51.456;7.244;2023-03-31T05:05:05;10.10;99.90
48998;DHT22;34807;51.456;7.244;2023-03-31T05:07:31;10.10;99.90
48998;DHT22;34807;51.456;7.244;2023-03-31T05:09:56;10.10;99.90
48998;DHT22;34807;51.456;7.244;2023-03-31T05:12:22;10.10;99.90
48998;DHT22;34807;51.456;7.244;2023-03-31T05:14:47;10.10;99.90
48998;DHT22;34807;51.456;7.244;2023-03-31T05:17:13;10.10;99.90
48998;DHT22;34807;51.456;7.244;2023-03-31T05:19:38;10.10;99.90
48998;DHT22;34807;51.456;7.244;2023-03-31T05:22:04;10.10;99.90
48998;DHT22;34807;51.456;7.244;2023-03-31T05:24:29;10.10;99.90
48998;DHT22;34807;51.456;7.244;2023-03-31T05:26:55;10.10;99.90
48998;DHT22;34807;51.456;7.244;2023-03-31T05:29:21;10.10;99.90
48998;DHT22;34807;51.456;7.244;2023-03-31T05:31:47;10.10;99.90
48998;DHT22;34807;51.456;7.244;2023-03-31T05:34:13;10.10;99.90
48998;DHT22;34807;51.456;7.244;2023-03-31T05:36:39;10.10;99.90
48998;DHT22;34807;51.456;7.244;2023-03-31T05:39:05;10.10;99.90
48998;DHT22;34807;51.456;7.244;2023-03-31T05:41:30;10.10;99.90
48998;DHT22;34807;51.456;7.244;2023-03-31T05:43:56;10.10;99.90
48998;DHT22;34807;51.456;7.244;2023-03-31T05:46:21;10.10;99.90
48998;DHT22;34807;51.456;7.244;2023-03-31T05:48:47;10.10;99.90
48998;DHT22;34807;51.456;7.244;2023-03-31T05:51:12;10.10;99.90
48998;DHT22;34807;51.456;7.244;2023-03-31T05:53:38;10.10;99.90
48998;DHT22;34807;51.456;7.244;2023-03-31T05:56:04;10.10;99.90
48998;DHT22;34807;51.456;7.244;2023-03-31T05:58:32;10.10;99.90
48998;DHT22;34807;51.456;7.244;2023-03-31T06:01:02;10.10;99.90
48998;DHT22;34807;51.456;7.244;2023-03-31T06:03:30;10.10;99.90
48998;DHT22;34807;51.456;7.244;2023-03-31T06:05:56;10.00;99.90
48998;DHT22;34807;51.456;7.244;2023-03-31T06:08:21;10.10;99.90
48998;DHT22;34807;51.456;7.244;2023-03-31T06:10:47;10.10;99.90
48998;DHT22;34807;51.456;7.244;2023-03-31T06:13:12;10.10;99.90
48998;DHT22;34807;51.456;7.244;2023-03-31T06:15:38;10.10;99.90
48998;DHT22;34807;51.456;7.244;2023-03-31T06:18:03;10.00;99.90
48998;DHT22;34807;51.456;7.244;2023-03-31T06:20:31;10.10;99.90
48998;DHT22;34807;51.456;7.244;2023-03-31T06:22:57;10.00;99.90
48998;DHT22;34807;51.456;7.244;2023-03-31T06:25:22;10.00;99.90
48998;DHT22;34807;51.456;7.244;2023-03-31T06:27:48;10.10;99.90
48998;DHT22;34807;51.456;7.244;2023-03-31T06:30:13;10.00;99.90
48998;DHT22;34807;51.456;7.244;2023-03-31T06:32:39;10.00;99.90
48998;DHT22;34807;51.456;7.244;2023-03-31T06:35:05;10.00;99.90
48998;DHT22;34807;51.456;7.244;2023-03-31T06:37:30;10.00;99.90
48998;DHT22;34807;51.456;7.244;2023-03-31T06:39:56;10.00;99.90
48998;DHT22;34807;51.456;7.244;2023-03-31T06:42:21;10.00;99.90
48998;DHT22;34807;51.456;7.244;2023-03-31T06:44:47;10.00;99.90
48998;DHT22;34807;51.456;7.244;2023-03-31T06:47:12;10.00;99.90
48998;DHT22;34807;51.456;7.244;2023-03-31T06:49:38;10.00;99.90
48998;DHT22;34807;51.456;7.244;2023-03-31T06:52:03;10.00;99.90
48998;DHT22;34807;51.456;7.244;2023-03-31T06:54:29;10.00;99.90
48998;DHT22;34807;51.456;7.244;2023-03-31T06:56:55;10.00;99.90
48998;DHT22;34807;51.456;7.244;2023-03-31T06:59:20;10.00;99.90
48998;DHT22;34807;51.456;7.244;2023-03-31T07:01:46;10.00;99.90
48998;DHT22;34807;51.456;7.244;2023-03-31T07:04:12;10.00;99.90
48998;DHT22;34807;51.456;7.244;2023-03-31T07:06:38;10.00;99.90
48998;DHT22;34807;51.456;7.244;2023-03-31T07:09:03;10.00;99.90
48998;DHT22;34807;51.456;7.244;2023-03-31T07:11:29;10.00;99.90
48998;DHT22;34807;51.456;7.244;2023-03-31T07:13:54;10.00;99.90
48998;DHT22;34807;51.456;7.244;2023-03-31T07:16:20;10.00;99.90
48998;DHT22;34807;51.456;7.244;2023-03-31T07:18:45;10.00;99.90
48998;DHT22;34807;51.456;7.244;2023-03-31T07:21:11;10.00;99.90
48998;DHT22;34807;51.456;7.244;2023-03-31T07:23:36;10.00;99.90
48998;DHT22;34807;51.456;7.244;2023-03-31T07:26:02;10.00;99.90
48998;DHT22;34807;51.456;7.244;2023-03-31T07:28:28;10.00;99.90
48998;DHT22;34807;51.456;7.244;2023-03-31T07:30:53;10.00;99.90
48998;DHT22;34807;51.456;7.244;2023-03-31T07:33:19;10.00;99.90
48998;DHT22;34807;51.456;7.244;2023-03-31T07:35:44;10.00;99.90
48998;DHT22;34807;51.456;7.244;2023-03-31T07:38:10;10.00;99.90
48998;DHT22;34807;51.456;7.244;2023-03-31T07:40:37;10.00;99.90
48998;DHT22;34807;51.456;7.244;2023-03-31T07:43:02;10.00;99.90
48998;DHT22;34807;51.456;7.244;2023-03-31T07:45:28;10.00;99.90
48998;DHT22;34807;51.456;7.244;2023-03-31T07:47:53;10.00;99.90
48998;DHT22;34807;51.456;7.244;2023-03-31T07:50:19;10.00;99.90
48998;DHT22;34807;51.456;7.244;2023-03-31T07:52:45;10.00;99.90
48998;DHT22;34807;51.456;7.244;2023-03-31T07:55:11;10.00;99.90
48998;DHT22;34807;51.456;7.244;2023-03-31T07:57:37;10.00;99.90
48998;DHT22;34807;51.456;7.244;2023-03-31T08:00:03;10.10;99.90
48998;DHT22;34807;51.456;7.244;2023-03-31T08:02:32;10.00;99.90
48998;DHT22;34807;51.456;7.244;2023-03-31T08:04:57;10.00;99.90
48998;DHT22;34807;51.456;7.244;2023-03-31T08:07:23;10.10;99.90
48998;DHT22;34807;51.456;7.244;2023-03-31T08:09:50;10.00;99.90
48998;DHT22;34807;51.456;7.244;2023-03-31T08:12:15;10.00;99.90
48998;DHT22;34807;51.456;7.244;2023-03-31T08:14:41;10.10;99.90
48998;DHT22;34807;51.456;7.244;2023-03-31T08:17:06;10.10;99.90
48998;DHT22;34807;51.456;7.244;2023-03-31T08:19:32;10.10;99.90
48998;DHT22;34807;51.456;7.244;2023-03-31T08:21:57;10.10;99.90
48998;DHT22;34807;51.456;7.244;2023-03-31T08:24:23;10.10;99.90
48998;DHT22;34807;51.456;7.244;2023-03-31T08:26:48;10.10;99.90
48998;DHT22;34807;51.456;7.244;2023-03-31T08:29:14;10.10;99.90
48998;DHT22;34807;51.456;7.244;2023-03-31T08:31:39;10.20;99.90
48998;DHT22;34807;51.456;7.244;2023-03-31T08:34:05;10.20;99.90
48998;DHT22;34807;51.456;7.244;2023-03-31T08:36:31;10.20;99.90
48998;DHT22;34807;51.456;7.244;2023-03-31T08:38:57;10.20;99.90
48998;DHT22;34807;51.456;7.244;2023-03-31T08:44:27;10.30;99.90
48998;DHT22;34807;51.456;7.244;2023-03-31T08:46:55;10.30;99.90
48998;DHT22;34807;51.456;7.244;2023-03-31T08:49:21;10.30;99.90
48998;DHT22;34807;51.456;7.244;2023-03-31T08:51:49;10.30;99.90
48998;DHT22;34807;51.456;7.244;2023-03-31T08:57:31;10.30;99.90
48998;DHT22;34807;51.456;7.244;2023-03-31T09:00:01;10.30;99.90
48998;DHT22;34807;51.456;7.244;2023-03-31T09:05:20;10.30;99.90
48998;DHT22;34807;51.456;7.244;2023-03-31T09:15:10;10.30;99.90
48998;DHT22;34807;51.456;7.244;2023-03-31T09:17:39;10.30;99.90
48998;DHT22;34807;51.456;7.244;2023-03-31T09:22:42;10.30;99.90
48998;DHT22;34807;51.456;7.244;2023-03-31T09:25:14;10.40;99.90
48998;DHT22;34807;51.456;7.244;2023-03-31T09:27:42;10.30;99.90
48998;DHT22;34807;51.456;7.244;2023-03-31T09:32:44;10.40;99.90
48998;DHT22;34807;51.456;7.244;2023-03-31T09:37:37;10.50;99.90
48998;DHT22;34807;51.456;7.244;2023-03-31T09:40:03;10.50;99.90
48998;DHT22;34807;51.456;7.244;2023-03-31T09:42:34;10.50;99.90
48998;DHT22;34807;51.456;7.244;2023-03-31T09:45:00;10.60;99.90
48998;DHT22;34807;51.456;7.244;2023-03-31T09:47:29;10.60;99.90
48998;DHT22;34807;51.456;7.244;2023-03-31T09:49:56;10.60;99.90
48998;DHT22;34807;51.456;7.244;2023-03-31T09:54:48;10.70;99.90
48998;DHT22;34807;51.456;7.244;2023-03-31T09:57:22;10.70;99.90
48998;DHT22;34807;51.456;7.244;2023-03-31T09:59:51;10.70;99.90
48998;DHT22;34807;51.456;7.244;2023-03-31T10:04:44;10.70;99.90
48998;DHT22;34807;51.456;7.244;2023-03-31T10:07:10;10.70;99.90
48998;DHT22;34807;51.456;7.244;2023-03-31T10:09:36;10.70;99.90
48998;DHT22;34807;51.456;7.244;2023-03-31T10:12:07;10.70;99.90
48998;DHT22;34807;51.456;7.244;2023-03-31T10:14:40;10.70;99.90
48998;DHT22;34807;51.456;7.244;2023-03-31T10:17:10;10.80;99.90
48998;DHT22;34807;51.456;7.244;2023-03-31T10:19:38;10.80;99.90
48998;DHT22;34807;51.456;7.244;2023-03-31T10:24:45;10.80;99.90
48998;DHT22;34807;51.456;7.244;2023-03-31T10:27:21;10.90;99.90
48998;DHT22;34807;51.456;7.244;2023-03-31T10:29:50;10.90;99.90
48998;DHT22;34807;51.456;7.244;2023-03-31T10:32:17;10.90;99.90
48998;DHT22;34807;51.456;7.244;2023-03-31T10:34:44;11.00;99.90
48998;DHT22;34807;51.456;7.244;2023-03-31T10:37:12;11.00;99.90
48998;DHT22;34807;51.456;7.244;2023-03-31T10:39:40;11.00;99.80
48998;DHT22;34807;51.456;7.244;2023-03-31T10:42:07;11.00;99.90
48998;DHT22;34807;51.456;7.244;2023-03-31T10:47:15;11.10;99.90
48998;DHT22;34807;51.456;7.244;2023-03-31T10:49:43;11.20;99.90
48998;DHT22;34807;51.456;7.244;2023-03-31T10:52:16;11.30;99.80
48998;DHT22;34807;51.456;7.244;2023-03-31T10:54:45;11.40;99.70
48998;DHT22;34807;51.456;7.244;2023-03-31T10:57:11;11.40;99.70
48998;DHT22;34807;51.456;7.244;2023-03-31T11:10:28;11.70;99.60
48998;DHT22;34807;51.456;7.244;2023-03-31T11:12:51;11.80;99.80
48998;DHT22;34807;51.456;7.244;2023-03-31T11:15:29;11.90;99.30
48998;DHT22;34807;51.456;7.244;2023-03-31T11:22:58;12.10;99.00
48998;DHT22;34807;51.456;7.244;2023-03-31T11:25:33;12.20;99.50
48998;DHT22;34807;51.456;7.244;2023-03-31T11:41:16;12.00;99.90
48998;DHT22;34807;51.456;7.244;2023-03-31T11:43:53;11.90;99.90
48998;DHT22;34807;51.456;7.244;2023-03-31T11:46:30;11.90;99.90
48998;DHT22;34807;51.456;7.244;2023-03-31T11:49:05;11.90;99.90
48998;DHT22;34807;51.456;7.244;2023-03-31T11:56:48;11.90;99.90
48998;DHT22;34807;51.456;7.244;2023-03-31T11:59:15;11.90;99.90
48998;DHT22;34807;51.456;7.244;2023-03-31T12:04:23;12.00;99.90
48998;DHT22;34807;51.456;7.244;2023-03-31T12:06:50;12.00;99.90
48998;DHT22;34807;51.456;7.244;2023-03-31T12:11:56;12.10;99.70
48998;DHT22;34807;51.456;7.244;2023-03-31T12:14:30;12.20;99.60
48998;DHT22;34807;51.456;7.244;2023-03-31T12:17:30;12.30;99.60
48998;DHT22;34807;51.456;7.244;2023-03-31T12:19:50;12.30;99.60
48998;DHT22;34807;51.456;7.244;2023-03-31T12:22:19;12.30;99.60
48998;DHT22;34807;51.456;7.244;2023-03-31T12:24:46;12.30;99.50
48998;DHT22;34807;51.456;7.244;2023-03-31T12:27:19;12.40;99.60
48998;DHT22;34807;51.456;7.244;2023-03-31T12:32:21;12.50;99.40
48998;DHT22;34807;51.456;7.244;2023-03-31T12:34:53;12.50;99.40
48998;DHT22;34807;51.456;7.244;2023-03-31T12:50:15;12.40;99.50
48998;DHT22;34807;51.456;7.244;2023-03-31T12:58:39;12.40;99.80
48998;DHT22;34807;51.456;7.244;2023-03-31T13:06:02;12.30;99.90
48998;DHT22;34807;51.456;7.244;2023-03-31T13:08:48;12.30;99.90
48998;DHT22;34807;51.456;7.244;2023-03-31T13:11:14;12.40;99.90
48998;DHT22;34807;51.456;7.244;2023-03-31T13:13:43;12.40;99.90
48998;DHT22;34807;51.456;7.244;2023-03-31T13:16:09;12.40;99.90
48998;DHT22;34807;51.456;7.244;2023-03-31T13:18:35;12.50;99.90
48998;DHT22;34807;51.456;7.244;2023-03-31T13:21:03;12.50;99.70
48998;DHT22;34807;51.456;7.244;2023-03-31T13:23:33;12.60;99.70
48998;DHT22;34807;51.456;7.244;2023-03-31T13:25:59;12.70;99.60
48998;DHT22;34807;51.456;7.244;2023-03-31T13:28:26;12.70;99.60
48998;DHT22;34807;51.456;7.244;2023-03-31T13:33:51;12.80;99.20
48998;DHT22;34807;51.456;7.244;2023-03-31T14:07:12;12.90;99.30
48998;DHT22;34807;51.456;7.244;2023-03-31T14:09:39;12.90;99.60
48998;DHT22;34807;51.456;7.244;2023-03-31T14:12:21;12.90;99.50
48998;DHT22;34807;51.456;7.244;2023-03-31T14:14:47;12.90;99.40
48998;DHT22;34807;51.456;7.244;2023-03-31T14:17:16;12.90;99.50
48998;DHT22;34807;51.456;7.244;2023-03-31T14:25:39;12.90;99.60
48998;DHT22;34807;51.456;7.244;2023-03-31T14:38:28;12.90;99.50
48998;DHT22;34807;51.456;7.244;2023-03-31T14:40:54;12.90;99.60
48998;DHT22;34807;51.456;7.244;2023-03-31T14:43:34;12.90;99.50
48998;DHT22;34807;51.456;7.244;2023-03-31T14:46:02;12.90;99.40
48998;DHT22;34807;51.456;7.244;2023-03-31T14:48:28;12.90;99.40
48998;DHT22;34807;51.456;7.244;2023-03-31T14:50:58;12.90;99.40
48998;DHT22;34807;51.456;7.244;2023-03-31T14:53:25;12.90;99.40
48998;DHT22;34807;51.456;7.244;2023-03-31T14:55:51;12.90;99.40
48998;DHT22;34807;51.456;7.244;2023-03-31T14:58:25;12.90;99.40
48998;DHT22;34807;51.456;7.244;2023-03-31T15:00:51;12.90;99.40
48998;DHT22;34807;51.456;7.244;2023-03-31T15:03:18;12.90;99.40
48998;DHT22;34807;51.456;7.244;2023-03-31T15:05:44;12.90;99.40
48998;DHT22;34807;51.456;7.244;2023-03-31T15:08:14;12.90;99.40
48998;DHT22;34807;51.456;7.244;2023-03-31T15:10:44;12.80;99.50
48998;DHT22;34807;51.456;7.244;2023-03-31T15:13:24;12.80;99.60
48998;DHT22;34807;51.456;7.244;2023-03-31T15:15:51;12.70;99.70
48998;DHT22;34807;51.456;7.244;2023-03-31T15:18:17;12.70;99.70
48998;DHT22;34807;51.456;7.244;2023-03-31T15:20:44;12.70;99.70
48998;DHT22;34807;51.456;7.244;2023-03-31T15:23:26;12.70;99.70
48998;DHT22;34807;51.456;7.244;2023-03-31T15:26:02;12.70;99.70
48998;DHT22;34807;51.456;7.244;2023-03-31T15:28:34;12.70;99.70
48998;DHT22;34807;51.456;7.244;2023-03-31T15:31:01;12.60;99.70
48998;DHT22;34807;51.456;7.244;2023-03-31T15:33:30;12.60;99.70
48998;DHT22;34807;51.456;7.244;2023-03-31T15:35:57;12.60;99.60
48998;DHT22;34807;51.456;7.244;2023-03-31T15:38:23;12.60;99.70
48998;DHT22;34807;51.456;7.244;2023-03-31T15:40:51;12.60;99.80
48998;DHT22;34807;51.456;7.244;2023-03-31T15:43:28;12.50;99.80
48998;DHT22;34807;51.456;7.244;2023-03-31T15:45:55;12.50;99.80
48998;DHT22;34807;51.456;7.244;2023-03-31T15:48:27;12.40;99.90
48998;DHT22;34807;51.456;7.244;2023-03-31T15:51:00;12.40;99.90
48998;DHT22;34807;51.456;7.244;2023-03-31T15:53:30;12.40;99.90
48998;DHT22;34807;51.456;7.244;2023-03-31T15:55:56;12.40;99.90
48998;DHT22;34807;51.456;7.244;2023-03-31T15:58:44;12.30;99.90
48998;DHT22;34807;51.456;7.244;2023-03-31T16:01:10;12.40;99.90
48998;DHT22;34807;51.456;7.244;2023-03-31T16:03:39;12.30;99.90
48998;DHT22;34807;51.456;7.244;2023-03-31T16:06:18;12.30;99.90
48998;DHT22;34807;51.456;7.244;2023-03-31T16:08:46;12.30;99.90
48998;DHT22;34807;51.456;7.244;2023-03-31T16:11:14;12.30;99.90
48998;DHT22;34807;51.456;7.244;2023-03-31T16:13:42;12.30;99.90
48998;DHT22;34807;51.456;7.244;2023-03-31T16:16:11;12.30;99.90
48998;DHT22;34807;51.456;7.244;2023-03-31T16:18:41;12.30;99.90
48998;DHT22;34807;51.456;7.244;2023-03-31T16:21:07;12.30;99.90
48998;DHT22;34807;51.456;7.244;2023-03-31T16:23:34;12.30;99.90
48998;DHT22;34807;51.456;7.244;2023-03-31T16:26:02;12.20;99.90
48998;DHT22;34807;51.456;7.244;2023-03-31T16:28:29;12.30;99.90
48998;DHT22;34807;51.456;7.244;2023-03-31T16:30:55;12.20;99.90
48998;DHT22;34807;51.456;7.244;2023-03-31T16:33:23;12.20;99.90
48998;DHT22;34807;51.456;7.244;2023-03-31T16:35:49;12.20;99.90
48998;DHT22;34807;51.456;7.244;2023-03-31T16:38:17;12.20;99.90
48998;DHT22;34807;51.456;7.244;2023-03-31T16:40:44;12.20;99.90
48998;DHT22;34807;51.456;7.244;2023-03-31T16:45:35;12.20;99.90
48998;DHT22;34807;51.456;7.244;2023-03-31T16:48:01;12.20;99.90
48998;DHT22;34807;51.456;7.244;2023-03-31T16:50:26;12.20;99.90
48998;DHT22;34807;51.456;7.244;2023-03-31T16:52:52;12.10;99.90
48998;DHT22;34807;51.456;7.244;2023-03-31T16:55:17;12.10;99.90
48998;DHT22;34807;51.456;7.244;2023-03-31T16:57:43;12.10;99.90
48998;DHT22;34807;51.456;7.244;2023-03-31T17:00:09;12.10;99.90
48998;DHT22;34807;51.456;7.244;2023-03-31T17:02:34;12.10;99.90
48998;DHT22;34807;51.456;7.244;2023-03-31T17:05:00;12.00;99.90
48998;DHT22;34807;51.456;7.244;2023-03-31T17:07:26;12.00;99.90
48998;DHT22;34807;51.456;7.244;2023-03-31T17:09:51;12.00;99.90
48998;DHT22;34807;51.456;7.244;2023-03-31T17:12:17;12.00;99.90
48998;DHT22;34807;51.456;7.244;2023-03-31T17:14:42;11.90;99.90
48998;DHT22;34807;51.456;7.244;2023-03-31T17:17:08;11.90;99.90
48998;DHT22;34807;51.456;7.244;2023-03-31T17:19:33;11.90;99.90
48998;DHT22;34807;51.456;7.244;2023-03-31T17:21:59;11.90;99.90
48998;DHT22;34807;51.456;7.244;2023-03-31T17:24:27;11.90;99.90
48998;DHT22;34807;51.456;7.244;2023-03-31T17:26:53;11.80;99.90
48998;DHT22;34807;51.456;7.244;2023-03-31T17:29:18;11.80;99.90
48998;DHT22;34807;51.456;7.244;2023-03-31T17:31:44;11.80;99.90
48998;DHT22;34807;51.456;7.244;2023-03-31T17:34:10;11.80;99.90
48998;DHT22;34807;51.456;7.244;2023-03-31T17:36:35;11.80;99.90
48998;DHT22;34807;51.456;7.244;2023-03-31T17:39:01;11.70;99.90
48998;DHT22;34807;51.456;7.244;2023-03-31T17:41:29;11.70;99.90
48998;DHT22;34807;51.456;7.244;2023-03-31T17:43:55;11.70;99.90
48998;DHT22;34807;51.456;7.244;2023-03-31T17:46:20;11.70;99.90
48998;DHT22;34807;51.456;7.244;2023-03-31T17:48:46;11.70;99.90
48998;DHT22;34807;51.456;7.244;2023-03-31T17:51:15;11.60;99.90
48998;DHT22;34807;51.456;7.244;2023-03-31T17:53:42;11.60;99.90
48998;DHT22;34807;51.456;7.244;2023-03-31T17:56:09;11.60;99.90
48998;DHT22;34807;51.456;7.244;2023-03-31T17:58:34;11.60;99.90
48998;DHT22;34807;51.456;7.244;2023-03-31T18:01:01;11.60;99.90
48998;DHT22;34807;51.456;7.244;2023-03-31T18:03:27;11.50;99.90
48998;DHT22;34807;51.456;7.244;2023-03-31T18:05:53;11.60;99.90
48998;DHT22;34807;51.456;7.244;2023-03-31T18:08:19;11.50;99.90
48998;DHT22;34807;51.456;7.244;2023-03-31T18:10:44;11.50;99.90
48998;DHT22;34807;51.456;7.244;2023-03-31T18:13:10;11.50;99.90
48998;DHT22;34807;51.456;7.244;2023-03-31T18:15:35;11.40;99.90
48998;DHT22;34807;51.456;7.244;2023-03-31T18:18:02;11.40;99.90
48998;DHT22;34807;51.456;7.244;2023-03-31T18:20:28;11.40;99.90
48998;DHT22;34807;51.456;7.244;2023-03-31T18:22:54;11.40;99.90
48998;DHT22;34807;51.456;7.244;2023-03-31T18:25:19;11.30;99.90
48998;DHT22;34807;51.456;7.244;2023-03-31T18:27:45;11.30;99.90
48998;DHT22;34807;51.456;7.244;2023-03-31T18:30:11;11.40;99.90
48998;DHT22;34807;51.456;7.244;2023-03-31T18:32:37;11.30;99.90
48998;DHT22;34807;51.456;7.244;2023-03-31T18:35:03;11.30;99.90
48998;DHT22;34807;51.456;7.244;2023-03-31T18:37:29;11.30;99.90
48998;DHT22;34807;51.456;7.244;2023-03-31T18:39:54;11.30;99.90
48998;DHT22;34807;51.456;7.244;2023-03-31T18:42:20;11.20;99.90
48998;DHT22;34807;51.456;7.244;2023-03-31T18:44:50;11.20;99.90
48998;DHT22;34807;51.456;7.244;2023-03-31T18:47:16;11.20;99.90
48998;DHT22;34807;51.456;7.244;2023-03-31T18:49:41;11.20;99.90
48998;DHT22;34807;51.456;7.244;2023-03-31T18:52:07;11.20;99.90
48998;DHT22;34807;51.456;7.244;2023-03-31T18:54:32;11.20;99.90
48998;DHT22;34807;51.456;7.244;2023-03-31T18:56:58;11.20;99.90
48998;DHT22;34807;51.456;7.244;2023-03-31T18:59:23;11.10;99.90
48998;DHT22;34807;51.456;7.244;2023-03-31T19:01:49;11.10;99.90
48998;DHT22;34807;51.456;7.244;2023-03-31T19:04:14;11.10;99.90